sensor_id;sensor_type;location;lat;lon;timestamp;temperature;humidity
66102;HTU21D;52883;51.094;5.880;2023-01-31T00:01:19;1.04;118.99
66102;HTU21D;52883;51.094;5.880;2023-01-31T00:03:46;0.97;118.99
66102;HTU21D;52883;51.094;5.880;2023-01-31T00:08:45;0.91;118.99
66102;HTU21D;52883;51.094;5.880;2023-01-31T00:11:12;0.88;118.99
66102;HTU21D;52883;51.094;5.880;2023-01-31T00:13:39;0.90;118.99
66102;HTU21D;52883;51.094;5.880;2023-01-31T00:16:06;0.89;118.99
66102;HTU21D;52883;51.094;5.880;2023-01-31T00:18:32;0.86;118.99
66102;HTU21D;52883;51.094;5.880;2023-01-31T00:21:04;0.87;118.99
66102;HTU21D;52883;51.094;5.880;2023-01-31T00:23:30;0.83;118.99
66102;HTU21D;52883;51.094;5.880;2023-01-31T00:26:08;0.80;118.99
66102;HTU21D;52883;51.094;5.880;2023-01-31T00:28:33;0.76;118.99
66102;HTU21D;52883;51.094;5.880;2023-01-31T00:30:59;0.74;118.99
66102;HTU21D;52883;51.094;5.880;2023-01-31T00:33:25;0.79;118.99
66102;HTU21D;52883;51.094;5.880;2023-01-31T00:35:50;0.91;118.99
66102;HTU21D;52883;51.094;5.880;2023-01-31T00:38:16;0.98;118.99
66102;HTU21D;52883;51.094;5.880;2023-01-31T00:40:41;1.06;118.99
66102;HTU21D;52883;51.094;5.880;2023-01-31T00:43:07;1.17;118.99
66102;HTU21D;52883;51.094;5.880;2023-01-31T00:45:32;1.26;118.99
66102;HTU21D;52883;51.094;5.880;2023-01-31T00:47:58;1.39;118.99
66102;HTU21D;52883;51.094;5.880;2023-01-31T00:50:23;1.46;118.99
66102;HTU21D;52883;51.094;5.880;2023-01-31T00:52:50;1.46;118.99
66102;HTU21D;52883;51.094;5.880;2023-01-31T00:55:15;1.45;118.99
66102;HTU21D;52883;51.094;5.880;2023-01-31T00:57:41;1.51;118.99
66102;HTU21D;52883;51.094;5.880;2023-01-31T01:00:07;1.57;118.99
66102;HTU21D;52883;51.094;5.880;2023-01-31T01:02:34;1.68;118.99
66102;HTU21D;52883;51.094;5.880;2023-01-31T01:04:59;1.80;118.99
66102;HTU21D;52883;51.094;5.880;2023-01-31T01:07:25;1.91;118.99
66102;HTU21D;52883;51.094;5.880;2023-01-31T01:09:51;1.96;118.99
66102;HTU21D;52883;51.094;5.880;2023-01-31T01:12:18;1.97;118.99
66102;HTU21D;52883;51.094;5.880;2023-01-31T01:14:44;2.01;118.99
66102;HTU21D;52883;51.094;5.880;2023-01-31T01:17:10;1.99;118.99
66102;HTU21D;52883;51.094;5.880;2023-01-31T01:19:35;1.97;118.99
66102;HTU21D;52883;51.094;5.880;2023-01-31T01:22:04;1.98;118.99
66102;HTU21D;52883;51.094;5.880;2023-01-31T01:24:30;2.05;118.99
66102;HTU21D;52883;51.094;5.880;2023-01-31T01:26:55;2.12;118.99
66102;HTU21D;52883;51.094;5.880;2023-01-31T01:29:22;2.13;118.99
66102;HTU21D;52883;51.094;5.880;2023-01-31T01:31:48;2.11;118.99
66102;HTU21D;52883;51.094;5.880;2023-01-31T01:34:15;2.08;118.99
66102;HTU21D;52883;51.094;5.880;2023-01-31T01:36:42;1.99;118.99
66102;HTU21D;52883;51.094;5.880;2023-01-31T01:39:10;1.95;118.99
66102;HTU21D;52883;51.094;5.880;2023-01-31T01:41:37;1.92;118.99
66102;HTU21D;52883;51.094;5.880;2023-01-31T01:50:07;1.64;118.99
66102;HTU21D;52883;51.094;5.880;2023-01-31T01:52:38;1.54;118.99
66102;HTU21D;52883;51.094;5.880;2023-01-31T01:55:15;1.52;118.99
66102;HTU21D;52883;51.094;5.880;2023-01-31T01:57:48;1.52;118.99
66102;HTU21D;52883;51.094;5.880;2023-01-31T02:00:20;1.48;118.99
66102;HTU21D;52883;51.094;5.880;2023-01-31T02:02:49;1.43;118.99
66102;HTU21D;52883;51.094;5.880;2023-01-31T02:05:21;1.42;118.99
66102;HTU21D;52883;51.094;5.880;2023-01-31T02:07:47;1.43;118.99
66102;HTU21D;52883;51.094;5.880;2023-01-31T02:12:57;1.47;118.99
66102;HTU21D;52883;51.094;5.880;2023-01-31T02:15:27;1.42;118.99
66102;HTU21D;52883;51.094;5.880;2023-01-31T02:17:53;1.34;118.99
66102;HTU21D;52883;51.094;5.880;2023-01-31T02:20:32;1.28;118.99
66102;HTU21D;52883;51.094;5.880;2023-01-31T02:29:15;1.43;118.99
66102;HTU21D;52883;51.094;5.880;2023-01-31T02:31:54;1.51;118.99
66102;HTU21D;52883;51.094;5.880;2023-01-31T02:45:06;1.55;118.99
66102;HTU21D;52883;51.094;5.880;2023-01-31T02:53:06;1.76;118.99
66102;HTU21D;52883;51.094;5.880;2023-01-31T02:56:12;1.79;118.99
66102;HTU21D;52883;51.094;5.880;2023-01-31T02:58:42;1.72;118.99
66102;HTU21D;52883;51.094;5.880;2023-01-31T03:01:14;1.61;118.99
66102;HTU21D;52883;51.094;5.880;2023-01-31T03:03:44;1.56;118.99
66102;HTU21D;52883;51.094;5.880;2023-01-31T03:09:00;1.52;118.99
66102;HTU21D;52883;51.094;5.880;2023-01-31T03:11:39;1.57;118.99
66102;HTU21D;52883;51.094;5.880;2023-01-31T03:16:55;1.64;118.99
66102;HTU21D;52883;51.094;5.880;2023-01-31T03:20:19;1.78;118.99
66102;HTU21D;52883;51.094;5.880;2023-01-31T03:22:55;1.94;118.99
66102;HTU21D;52883;51.094;5.880;2023-01-31T03:25:28;2.02;118.99
66102;HTU21D;52883;51.094;5.880;2023-01-31T03:28:02;2.10;118.99
66102;HTU21D;52883;51.094;5.880;2023-01-31T03:30:40;2.21;118.99
66102;HTU21D;52883;51.094;5.880;2023-01-31T03:33:27;2.26;118.99
66102;HTU21D;52883;51.094;5.880;2023-01-31T03:39:27;2.30;118.99
66102;HTU21D;52883;51.094;5.880;2023-01-31T03:42:03;2.32;118.99
66102;HTU21D;52883;51.094;5.880;2023-01-31T03:49:53;2.38;118.99
66102;HTU21D;52883;51.094;5.880;2023-01-31T03:52:28;2.37;118.99
66102;HTU21D;52883;51.094;5.880;2023-01-31T03:55:07;2.29;118.99
66102;HTU21D;52883;51.094;5.880;2023-01-31T03:57:38;2.23;118.99
66102;HTU21D;52883;51.094;5.880;2023-01-31T04:00:10;2.14;118.99
66102;HTU21D;52883;51.094;5.880;2023-01-31T04:03:37;2.10;118.99
66102;HTU21D;52883;51.094;5.880;2023-01-31T04:05:43;2.01;118.99
66102;HTU21D;52883;51.094;5.880;2023-01-31T04:08:10;1.95;118.99
66102;HTU21D;52883;51.094;5.880;2023-01-31T04:10:36;1.85;118.99
66102;HTU21D;52883;51.094;5.880;2023-01-31T04:13:01;1.80;118.99
66102;HTU21D;52883;51.094;5.880;2023-01-31T04:15:27;1.79;118.99
66102;HTU21D;52883;51.094;5.880;2023-01-31T04:17:53;1.78;118.99
66102;HTU21D;52883;51.094;5.880;2023-01-31T04:20:18;1.77;118.99
66102;HTU21D;52883;51.094;5.880;2023-01-31T04:22:44;1.81;118.99
66102;HTU21D;52883;51.094;5.880;2023-01-31T04:25:10;1.83;118.99
66102;HTU21D;52883;51.094;5.880;2023-01-31T04:27:36;1.82;118.99
66102;HTU21D;52883;51.094;5.880;2023-01-31T04:30:02;1.88;118.99
66102;HTU21D;52883;51.094;5.880;2023-01-31T04:32:28;1.94;118.99
66102;HTU21D;52883;51.094;5.880;2023-01-31T04:34:53;1.92;118.99
66102;HTU21D;52883;51.094;5.880;2023-01-31T04:37:19;1.92;118.99
66102;HTU21D;52883;51.094;5.880;2023-01-31T04:39:44;1.93;118.99
66102;HTU21D;52883;51.094;5.880;2023-01-31T04:42:10;1.94;118.99
66102;HTU21D;52883;51.094;5.880;2023-01-31T04:44:36;1.93;118.99
66102;HTU21D;52883;51.094;5.880;2023-01-31T04:47:01;1.95;118.99
66102;HTU21D;52883;51.094;5.880;2023-01-31T04:49:27;1.96;118.99
66102;HTU21D;52883;51.094;5.880;2023-01-31T04:51:52;1.96;118.99
66102;HTU21D;52883;51.094;5.880;2023-01-31T04:54:18;1.95;118.99
66102;HTU21D;52883;51.094;5.880;2023-01-31T04:56:43;1.95;118.99
66102;HTU21D;52883;51.094;5.880;2023-01-31T04:59:09;1.97;118.99
66102;HTU21D;52883;51.094;5.880;2023-01-31T05:01:35;2.01;118.99
66102;HTU21D;52883;51.094;5.880;2023-01-31T05:04:00;2.01;118.99
66102;HTU21D;52883;51.094;5.880;2023-01-31T05:06:26;1.95;118.99
66102;HTU21D;52883;51.094;5.880;2023-01-31T05:08:51;1.87;118.99
66102;HTU21D;52883;51.094;5.880;2023-01-31T05:11:18;1.77;118.99
66102;HTU21D;52883;51.094;5.880;2023-01-31T05:13:44;1.70;118.99
66102;HTU21D;52883;51.094;5.880;2023-01-31T05:16:11;1.60;118.99
66102;HTU21D;52883;51.094;5.880;2023-01-31T05:18:37;1.58;118.99
66102;HTU21D;52883;51.094;5.880;2023-01-31T05:21:04;1.62;118.99
66102;HTU21D;52883;51.094;5.880;2023-01-31T05:23:30;1.61;118.99
66102;HTU21D;52883;51.094;5.880;2023-01-31T05:25:56;1.60;118.99
66102;HTU21D;52883;51.094;5.880;2023-01-31T05:28:22;1.55;118.99
66102;HTU21D;52883;51.094;5.880;2023-01-31T05:30:49;1.46;118.99
66102;HTU21D;52883;51.094;5.880;2023-01-31T05:33:15;1.43;118.99
66102;HTU21D;52883;51.094;5.880;2023-01-31T05:35:40;1.43;118.99
66102;HTU21D;52883;51.094;5.880;2023-01-31T05:38:08;1.43;118.99
66102;HTU21D;52883;51.094;5.880;2023-01-31T05:40:34;1.46;118.99
66102;HTU21D;52883;51.094;5.880;2023-01-31T05:43:00;1.49;118.99
66102;HTU21D;52883;51.094;5.880;2023-01-31T05:45:26;1.51;118.99
66102;HTU21D;52883;51.094;5.880;2023-01-31T05:47:53;1.51;118.99
66102;HTU21D;52883;51.094;5.880;2023-01-31T05:50:20;1.51;118.99
66102;HTU21D;52883;51.094;5.880;2023-01-31T05:52:50;1.57;118.99
66102;HTU21D;52883;51.094;5.880;2023-01-31T05:55:16;1.65;118.99
66102;HTU21D;52883;51.094;5.880;2023-01-31T05:57:41;1.69;118.99
66102;HTU21D;52883;51.094;5.880;2023-01-31T06:00:07;1.71;118.99
66102;HTU21D;52883;51.094;5.880;2023-01-31T06:02:37;1.69;118.99
66102;HTU21D;52883;51.094;5.880;2023-01-31T06:05:03;1.64;118.99
66102;HTU21D;52883;51.094;5.880;2023-01-31T06:07:28;1.61;118.99
66102;HTU21D;52883;51.094;5.880;2023-01-31T06:09:54;1.55;118.99
66102;HTU21D;52883;51.094;5.880;2023-01-31T06:12:19;1.56;118.99
66102;HTU21D;52883;51.094;5.880;2023-01-31T06:14:45;1.52;118.99
66102;HTU21D;52883;51.094;5.880;2023-01-31T06:17:11;1.47;118.99
66102;HTU21D;52883;51.094;5.880;2023-01-31T06:19:37;1.42;118.99
66102;HTU21D;52883;51.094;5.880;2023-01-31T06:22:04;1.34;118.99
66102;HTU21D;52883;51.094;5.880;2023-01-31T06:24:30;1.25;118.99
66102;HTU21D;52883;51.094;5.880;2023-01-31T06:26:55;1.18;118.99
66102;HTU21D;52883;51.094;5.880;2023-01-31T06:29:21;1.18;118.99
66102;HTU21D;52883;51.094;5.880;2023-01-31T06:31:47;1.17;118.99
66102;HTU21D;52883;51.094;5.880;2023-01-31T06:34:12;1.18;118.99
66102;HTU21D;52883;51.094;5.880;2023-01-31T06:36:38;1.22;118.99
66102;HTU21D;52883;51.094;5.880;2023-01-31T06:39:03;1.32;118.99
66102;HTU21D;52883;51.094;5.880;2023-01-31T06:41:29;1.41;118.99
66102;HTU21D;52883;51.094;5.880;2023-01-31T06:43:55;1.52;118.99
66102;HTU21D;52883;51.094;5.880;2023-01-31T06:46:21;1.64;118.99
66102;HTU21D;52883;51.094;5.880;2023-01-31T06:48:47;1.81;118.99
66102;HTU21D;52883;51.094;5.880;2023-01-31T06:51:16;2.00;118.99
66102;HTU21D;52883;51.094;5.880;2023-01-31T06:53:42;2.16;118.99
66102;HTU21D;52883;51.094;5.880;2023-01-31T06:56:08;2.30;118.99
66102;HTU21D;52883;51.094;5.880;2023-01-31T06:58:34;2.39;118.99
66102;HTU21D;52883;51.094;5.880;2023-01-31T07:01:08;2.50;118.99
66102;HTU21D;52883;51.094;5.880;2023-01-31T07:03:34;2.58;118.99
66102;HTU21D;52883;51.094;5.880;2023-01-31T07:06:00;2.66;118.99
66102;HTU21D;52883;51.094;5.880;2023-01-31T07:08:26;2.76;118.99
66102;HTU21D;52883;51.094;5.880;2023-01-31T07:10:51;2.85;118.99
66102;HTU21D;52883;51.094;5.880;2023-01-31T07:13:17;2.96;118.99
66102;HTU21D;52883;51.094;5.880;2023-01-31T07:15:44;3.03;118.99
66102;HTU21D;52883;51.094;5.880;2023-01-31T07:18:10;3.08;118.99
66102;HTU21D;52883;51.094;5.880;2023-01-31T07:20:41;3.13;118.99
66102;HTU21D;52883;51.094;5.880;2023-01-31T07:23:07;3.16;118.99
66102;HTU21D;52883;51.094;5.880;2023-01-31T07:25:34;3.24;118.99
66102;HTU21D;52883;51.094;5.880;2023-01-31T07:28:01;3.31;118.99
66102;HTU21D;52883;51.094;5.880;2023-01-31T07:30:27;3.39;118.99
66102;HTU21D;52883;51.094;5.880;2023-01-31T07:32:53;3.44;118.99
66102;HTU21D;52883;51.094;5.880;2023-01-31T07:35:20;3.50;118.99
66102;HTU21D;52883;51.094;5.880;2023-01-31T07:37:46;3.55;118.99
66102;HTU21D;52883;51.094;5.880;2023-01-31T07:40:14;3.61;118.99
66102;HTU21D;52883;51.094;5.880;2023-01-31T07:42:40;3.70;118.99
66102;HTU21D;52883;51.094;5.880;2023-01-31T07:45:08;3.78;118.99
66102;HTU21D;52883;51.094;5.880;2023-01-31T07:47:34;3.83;118.99
66102;HTU21D;52883;51.094;5.880;2023-01-31T07:50:00;3.92;118.99
66102;HTU21D;52883;51.094;5.880;2023-01-31T07:52:25;4.00;118.99
66102;HTU21D;52883;51.094;5.880;2023-01-31T07:54:51;4.05;118.99
66102;HTU21D;52883;51.094;5.880;2023-01-31T07:57:16;4.08;118.99
66102;HTU21D;52883;51.094;5.880;2023-01-31T07:59:43;4.15;118.99
66102;HTU21D;52883;51.094;5.880;2023-01-31T08:02:16;4.28;118.99
66102;HTU21D;52883;51.094;5.880;2023-01-31T08:05:01;4.31;118.99
66102;HTU21D;52883;51.094;5.880;2023-01-31T08:07:28;4.36;118.99
66102;HTU21D;52883;51.094;5.880;2023-01-31T08:09:54;4.39;118.99
66102;HTU21D;52883;51.094;5.880;2023-01-31T08:12:20;4.49;118.99
66102;HTU21D;52883;51.094;5.880;2023-01-31T08:14:45;4.61;118.99
66102;HTU21D;52883;51.094;5.880;2023-01-31T08:17:11;4.75;118.99
66102;HTU21D;52883;51.094;5.880;2023-01-31T08:19:37;4.81;118.99
66102;HTU21D;52883;51.094;5.880;2023-01-31T08:22:03;4.79;118.99
66102;HTU21D;52883;51.094;5.880;2023-01-31T08:24:30;4.76;118.99
66102;HTU21D;52883;51.094;5.880;2023-01-31T08:26:56;4.69;118.99
66102;HTU21D;52883;51.094;5.880;2023-01-31T08:29:22;4.67;118.99
66102;HTU21D;52883;51.094;5.880;2023-01-31T08:31:49;4.63;118.99
66102;HTU21D;52883;51.094;5.880;2023-01-31T08:34:15;4.62;118.99
66102;HTU21D;52883;51.094;5.880;2023-01-31T08:36:40;4.64;118.99
66102;HTU21D;52883;51.094;5.880;2023-01-31T08:39:07;4.73;118.99
66102;HTU21D;52883;51.094;5.880;2023-01-31T08:41:36;4.82;118.99
66102;HTU21D;52883;51.094;5.880;2023-01-31T08:44:03;4.94;118.99
66102;HTU21D;52883;51.094;5.880;2023-01-31T08:46:32;4.98;118.99
66102;HTU21D;52883;51.094;5.880;2023-01-31T08:48:59;5.06;118.99
66102;HTU21D;52883;51.094;5.880;2023-01-31T08:51:26;5.11;118.99
66102;HTU21D;52883;51.094;5.880;2023-01-31T08:53:52;5.21;118.99
66102;HTU21D;52883;51.094;5.880;2023-01-31T08:56:17;5.34;118.99
66102;HTU21D;52883;51.094;5.880;2023-01-31T08:58:46;5.42;118.99
66102;HTU21D;52883;51.094;5.880;2023-01-31T09:01:15;5.59;118.99
66102;HTU21D;52883;51.094;5.880;2023-01-31T09:03:42;5.69;118.99
66102;HTU21D;52883;51.094;5.880;2023-01-31T09:06:13;5.74;118.99
66102;HTU21D;52883;51.094;5.880;2023-01-31T09:08:39;5.80;118.99
66102;HTU21D;52883;51.094;5.880;2023-01-31T09:11:05;5.95;118.99
66102;HTU21D;52883;51.094;5.880;2023-01-31T09:13:31;6.09;118.99
66102;HTU21D;52883;51.094;5.880;2023-01-31T09:16:03;6.20;118.99
66102;HTU21D;52883;51.094;5.880;2023-01-31T09:18:31;6.15;118.99
66102;HTU21D;52883;51.094;5.880;2023-01-31T09:21:03;6.19;118.99
66102;HTU21D;52883;51.094;5.880;2023-01-31T09:23:29;6.21;118.99
66102;HTU21D;52883;51.094;5.880;2023-01-31T09:25:55;6.23;118.99
66102;HTU21D;52883;51.094;5.880;2023-01-31T09:28:22;6.28;118.99
66102;HTU21D;52883;51.094;5.880;2023-01-31T09:30:49;6.31;118.99
66102;HTU21D;52883;51.094;5.880;2023-01-31T09:33:15;6.35;118.99
66102;HTU21D;52883;51.094;5.880;2023-01-31T09:35:41;6.54;118.99
66102;HTU21D;52883;51.094;5.880;2023-01-31T09:38:07;6.71;118.99
66102;HTU21D;52883;51.094;5.880;2023-01-31T09:40:37;6.79;118.99
66102;HTU21D;52883;51.094;5.880;2023-01-31T09:43:03;6.89;118.99
66102;HTU21D;52883;51.094;5.880;2023-01-31T09:45:33;7.00;118.99
66102;HTU21D;52883;51.094;5.880;2023-01-31T09:48:01;7.05;118.99
66102;HTU21D;52883;51.094;5.880;2023-01-31T09:50:38;6.98;118.99
66102;HTU21D;52883;51.094;5.880;2023-01-31T09:53:05;6.85;118.99
66102;HTU21D;52883;51.094;5.880;2023-01-31T09:55:35;6.68;118.99
66102;HTU21D;52883;51.094;5.880;2023-01-31T10:01:15;6.50;118.99
66102;HTU21D;52883;51.094;5.880;2023-01-31T10:07:08;6.73;118.99
66102;HTU21D;52883;51.094;5.880;2023-01-31T10:10:23;6.90;118.99
66102;HTU21D;52883;51.094;5.880;2023-01-31T10:13:02;7.15;118.99
66102;HTU21D;52883;51.094;5.880;2023-01-31T10:15:41;7.40;118.99
66102;HTU21D;52883;51.094;5.880;2023-01-31T10:20:44;7.78;118.99
66102;HTU21D;52883;51.094;5.880;2023-01-31T10:23:25;7.99;118.99
66102;HTU21D;52883;51.094;5.880;2023-01-31T10:26:01;8.15;118.99
66102;HTU21D;52883;51.094;5.880;2023-01-31T10:31:33;8.35;118.99
66102;HTU21D;52883;51.094;5.880;2023-01-31T10:34:14;8.35;118.99
66102;HTU21D;52883;51.094;5.880;2023-01-31T10:36:48;8.57;118.99
66102;HTU21D;52883;51.094;5.880;2023-01-31T10:39:32;8.76;118.99
66102;HTU21D;52883;51.094;5.880;2023-01-31T10:42:25;8.71;118.99
66102;HTU21D;52883;51.094;5.880;2023-01-31T10:45:14;8.68;118.99
66102;HTU21D;52883;51.094;5.880;2023-01-31T10:47:50;8.63;118.99
66102;HTU21D;52883;51.094;5.880;2023-01-31T10:58:01;8.85;118.99
66102;HTU21D;52883;51.094;5.880;2023-01-31T11:00:31;8.85;118.99
66102;HTU21D;52883;51.094;5.880;2023-01-31T11:02:58;8.89;118.99
66102;HTU21D;52883;51.094;5.880;2023-01-31T11:05:26;9.00;118.99
66102;HTU21D;52883;51.094;5.880;2023-01-31T11:07:56;9.05;118.99
66102;HTU21D;52883;51.094;5.880;2023-01-31T11:10:27;9.00;118.99
66102;HTU21D;52883;51.094;5.880;2023-01-31T11:12:59;8.98;118.99
66102;HTU21D;52883;51.094;5.880;2023-01-31T11:15:38;8.90;118.99
66102;HTU21D;52883;51.094;5.880;2023-01-31T11:18:05;8.75;118.99
66102;HTU21D;52883;51.094;5.880;2023-01-31T11:20:35;8.53;118.99
66102;HTU21D;52883;51.094;5.880;2023-01-31T11:23:04;8.43;118.99
66102;HTU21D;52883;51.094;5.880;2023-01-31T11:25:32;8.31;118.99
66102;HTU21D;52883;51.094;5.880;2023-01-31T11:28:17;8.33;118.99
66102;HTU21D;52883;51.094;5.880;2023-01-31T11:30:47;8.33;118.99
66102;HTU21D;52883;51.094;5.880;2023-01-31T11:33:37;8.38;118.99
66102;HTU21D;52883;51.094;5.880;2023-01-31T11:36:12;8.63;118.99
66102;HTU21D;52883;51.094;5.880;2023-01-31T11:38:38;8.78;118.99
66102;HTU21D;52883;51.094;5.880;2023-01-31T11:41:33;8.95;118.99
66102;HTU21D;52883;51.094;5.880;2023-01-31T11:44:19;9.20;118.99
66102;HTU21D;52883;51.094;5.880;2023-01-31T11:46:53;9.30;118.99
66102;HTU21D;52883;51.094;5.880;2023-01-31T11:51:54;9.30;118.99
66102;HTU21D;52883;51.094;5.880;2023-01-31T11:54:27;9.33;118.99
66102;HTU21D;52883;51.094;5.880;2023-01-31T11:56:53;9.64;118.99
66102;HTU21D;52883;51.094;5.880;2023-01-31T11:59:25;9.80;118.99
66102;HTU21D;52883;51.094;5.880;2023-01-31T12:01:56;9.98;118.99
66102;HTU21D;52883;51.094;5.880;2023-01-31T12:04:34;9.90;118.99
66102;HTU21D;52883;51.094;5.880;2023-01-31T12:07:21;9.72;118.99
66102;HTU21D;52883;51.094;5.880;2023-01-31T12:09:47;9.63;118.99
66102;HTU21D;52883;51.094;5.880;2023-01-31T12:12:34;9.48;118.99
66102;HTU21D;52883;51.094;5.880;2023-01-31T12:15:12;9.24;118.99
66102;HTU21D;52883;51.094;5.880;2023-01-31T12:17:45;9.05;118.99
66102;HTU21D;52883;51.094;5.880;2023-01-31T12:20:31;9.01;118.99
66102;HTU21D;52883;51.094;5.880;2023-01-31T12:23:05;8.92;118.99
66102;HTU21D;52883;51.094;5.880;2023-01-31T12:25:55;8.85;118.99
66102;HTU21D;52883;51.094;5.880;2023-01-31T12:28:46;8.79;118.99
66102;HTU21D;52883;51.094;5.880;2023-01-31T12:31:22;8.75;118.99
66102;HTU21D;52883;51.094;5.880;2023-01-31T12:34:08;8.80;118.99
66102;HTU21D;52883;51.094;5.880;2023-01-31T12:36:51;8.79;118.99
66102;HTU21D;52883;51.094;5.880;2023-01-31T12:45:18;8.71;118.99
66102;HTU21D;52883;51.094;5.880;2023-01-31T12:53:36;8.68;118.99
66102;HTU21D;52883;51.094;5.880;2023-01-31T12:56:15;8.67;118.99
66102;HTU21D;52883;51.094;5.880;2023-01-31T12:59:08;8.67;118.99
66102;HTU21D;52883;51.094;5.880;2023-01-31T13:04:41;8.64;118.99
66102;HTU21D;52883;51.094;5.880;2023-01-31T13:07:35;8.66;118.99
66102;HTU21D;52883;51.094;5.880;2023-01-31T13:10:16;8.70;118.99
66102;HTU21D;52883;51.094;5.880;2023-01-31T13:12:46;8.63;118.99
66102;HTU21D;52883;51.094;5.880;2023-01-31T13:15:42;8.49;118.99
66102;HTU21D;52883;51.094;5.880;2023-01-31T13:18:10;8.35;118.99
66102;HTU21D;52883;51.094;5.880;2023-01-31T13:20:56;8.30;118.99
66102;HTU21D;52883;51.094;5.880;2023-01-31T13:23:35;8.27;118.99
66102;HTU21D;52883;51.094;5.880;2023-01-31T13:26:27;8.06;118.99
66102;HTU21D;52883;51.094;5.880;2023-01-31T13:31:49;7.81;118.99
66102;HTU21D;52883;51.094;5.880;2023-01-31T13:36:55;7.78;118.99
66102;HTU21D;52883;51.094;5.880;2023-01-31T13:39:33;7.83;118.99
66102;HTU21D;52883;51.094;5.880;2023-01-31T13:42:00;7.81;118.99
66102;HTU21D;52883;51.094;5.880;2023-01-31T13:44:26;7.83;118.99
66102;HTU21D;52883;51.094;5.880;2023-01-31T13:47:01;7.79;118.99
66102;HTU21D;52883;51.094;5.880;2023-01-31T13:49:49;7.71;118.99
66102;HTU21D;52883;51.094;5.880;2023-01-31T13:52:34;7.68;118.99
66102;HTU21D;52883;51.094;5.880;2023-01-31T13:55:22;7.67;118.99
66102;HTU21D;52883;51.094;5.880;2023-01-31T13:57:55;7.65;118.99
66102;HTU21D;52883;51.094;5.880;2023-01-31T14:00:43;7.70;118.99
66102;HTU21D;52883;51.094;5.880;2023-01-31T14:03:19;7.68;118.99
66102;HTU21D;52883;51.094;5.880;2023-01-31T14:06:00;7.71;118.99
66102;HTU21D;52883;51.094;5.880;2023-01-31T14:14:11;7.73;118.99
66102;HTU21D;52883;51.094;5.880;2023-01-31T14:16:43;7.70;118.99
66102;HTU21D;52883;51.094;5.880;2023-01-31T14:22:04;7.69;118.99
66102;HTU21D;52883;51.094;5.880;2023-01-31T14:27:20;7.67;118.99
66102;HTU21D;52883;51.094;5.880;2023-01-31T14:32:40;7.62;118.99
66102;HTU21D;52883;51.094;5.880;2023-01-31T14:41:09;7.56;118.99
66102;HTU21D;52883;51.094;5.880;2023-01-31T14:43:47;7.56;118.99
66102;HTU21D;52883;51.094;5.880;2023-01-31T14:46:32;7.57;118.99
66102;HTU21D;52883;51.094;5.880;2023-01-31T14:49:24;7.60;118.99
66102;HTU21D;52883;51.094;5.880;2023-01-31T14:52:11;7.60;118.99
66102;HTU21D;52883;51.094;5.880;2023-01-31T14:57:22;7.55;118.99
66102;HTU21D;52883;51.094;5.880;2023-01-31T14:59:59;7.52;118.99
66102;HTU21D;52883;51.094;5.880;2023-01-31T15:05:14;7.46;118.99
66102;HTU21D;52883;51.094;5.880;2023-01-31T15:10:56;7.48;118.99
66102;HTU21D;52883;51.094;5.880;2023-01-31T15:13:39;7.50;118.99
66102;HTU21D;52883;51.094;5.880;2023-01-31T15:16:28;7.53;118.99
66102;HTU21D;52883;51.094;5.880;2023-01-31T15:19:07;7.50;118.99
66102;HTU21D;52883;51.094;5.880;2023-01-31T15:24:18;7.50;118.99
66102;HTU21D;52883;51.094;5.880;2023-01-31T15:26:46;7.52;118.99
66102;HTU21D;52883;51.094;5.880;2023-01-31T15:29:25;7.56;118.99
66102;HTU21D;52883;51.094;5.880;2023-01-31T15:31:57;7.57;118.99
66102;HTU21D;52883;51.094;5.880;2023-01-31T15:34:32;7.55;118.99
66102;HTU21D;52883;51.094;5.880;2023-01-31T15:37:29;7.53;118.99
66102;HTU21D;52883;51.094;5.880;2023-01-31T15:40:03;7.52;118.99
66102;HTU21D;52883;51.094;5.880;2023-01-31T15:42:32;7.54;118.99
66102;HTU21D;52883;51.094;5.880;2023-01-31T15:45:24;7.54;118.99
66102;HTU21D;52883;51.094;5.880;2023-01-31T15:48:05;7.53;118.99
66102;HTU21D;52883;51.094;5.880;2023-01-31T15:50:32;7.54;118.99
66102;HTU21D;52883;51.094;5.880;2023-01-31T15:53:13;7.50;118.99
66102;HTU21D;52883;51.094;5.880;2023-01-31T15:55:40;7.52;118.99
66102;HTU21D;52883;51.094;5.880;2023-01-31T15:58:18;7.53;118.99
66102;HTU21D;52883;51.094;5.880;2023-01-31T16:00:52;7.55;118.99
66102;HTU21D;52883;51.094;5.880;2023-01-31T16:03:26;7.58;118.99
66102;HTU21D;52883;51.094;5.880;2023-01-31T16:05:54;7.58;118.99
66102;HTU21D;52883;51.094;5.880;2023-01-31T16:08:27;7.59;118.99
66102;HTU21D;52883;51.094;5.880;2023-01-31T16:10:55;7.56;118.99
66102;HTU21D;52883;51.094;5.880;2023-01-31T16:13:21;7.56;118.99
66102;HTU21D;52883;51.094;5.880;2023-01-31T16:15:48;7.53;118.99
66102;HTU21D;52883;51.094;5.880;2023-01-31T16:18:15;7.48;118.99
66102;HTU21D;52883;51.094;5.880;2023-01-31T16:20:50;7.47;118.99
66102;HTU21D;52883;51.094;5.880;2023-01-31T16:28:24;7.37;118.99
66102;HTU21D;52883;51.094;5.880;2023-01-31T16:30:51;7.33;118.99
66102;HTU21D;52883;51.094;5.880;2023-01-31T16:33:21;7.31;118.99
66102;HTU21D;52883;51.094;5.880;2023-01-31T16:36:05;7.31;118.99
66102;HTU21D;52883;51.094;5.880;2023-01-31T16:38:32;7.34;118.99
66102;HTU21D;52883;51.094;5.880;2023-01-31T16:40:59;7.35;118.99
66102;HTU21D;52883;51.094;5.880;2023-01-31T16:43:30;7.34;118.99
66102;HTU21D;52883;51.094;5.880;2023-01-31T16:45:59;7.35;118.99
66102;HTU21D;52883;51.094;5.880;2023-01-31T16:48:32;7.35;118.99
66102;HTU21D;52883;51.094;5.880;2023-01-31T16:51:00;7.37;118.99
66102;HTU21D;52883;51.094;5.880;2023-01-31T16:53:45;7.37;118.99
66102;HTU21D;52883;51.094;5.880;2023-01-31T17:01:13;7.37;118.99
66102;HTU21D;52883;51.094;5.880;2023-01-31T17:03:39;7.38;118.99
66102;HTU21D;52883;51.094;5.880;2023-01-31T17:06:06;7.39;118.99
66102;HTU21D;52883;51.094;5.880;2023-01-31T17:08:39;7.43;118.99
66102;HTU21D;52883;51.094;5.880;2023-01-31T17:11:09;7.44;118.99
66102;HTU21D;52883;51.094;5.880;2023-01-31T17:13:36;7.47;118.99
66102;HTU21D;52883;51.094;5.880;2023-01-31T17:16:12;7.45;118.99
66102;HTU21D;52883;51.094;5.880;2023-01-31T17:18:38;7.42;118.99
66102;HTU21D;52883;51.094;5.880;2023-01-31T17:21:03;7.37;118.99
66102;HTU21D;52883;51.094;5.880;2023-01-31T17:23:29;7.37;118.99
66102;HTU21D;52883;51.094;5.880;2023-01-31T17:25:55;7.29;118.99
66102;HTU21D;52883;51.094;5.880;2023-01-31T17:28:20;7.18;118.99
66102;HTU21D;52883;51.094;5.880;2023-01-31T17:30:46;7.17;118.99
66102;HTU21D;52883;51.094;5.880;2023-01-31T17:33:13;7.19;118.99
66102;HTU21D;52883;51.094;5.880;2023-01-31T17:35:43;7.18;118.99
66102;HTU21D;52883;51.094;5.880;2023-01-31T17:38:11;7.23;118.99
66102;HTU21D;52883;51.094;5.880;2023-01-31T17:40:38;7.24;118.99
66102;HTU21D;52883;51.094;5.880;2023-01-31T17:43:04;7.03;118.99
66102;HTU21D;52883;51.094;5.880;2023-01-31T17:45:31;6.58;118.99
66102;HTU21D;52883;51.094;5.880;2023-01-31T17:47:57;6.36;118.99
66102;HTU21D;52883;51.094;5.880;2023-01-31T17:50:25;6.33;118.99